Hlavní strana
METAR-TAF:

METAR-TAF

Letiště :

Zeltweg, Rakousko

zeměpisná šířka: 47-12N, zeměpisná délka: 014-45E, výška: 677 m

Aktuální stav počasí

Zpráva byla vytvořena před 16 minutami, v 14:50 UTC
Severní vítr 10 kt
Teplota 6°C
Vlhkost vzduchu 45%
Tlak 1023 hPa

METAR: LOXZ 191450Z 35010KT 25KM FEW045SC BKN060SC 06/M05 Q1023 NOSIG

Čas: 16:06 (15:06 UTC)

Předpověď počasí

Zpráva byla vytvořena před 51 minutami, v 14:15 UTC
Předpověď platná od 19 v 15 UTC do 19 v 24 UTC
Severozápadní vítr 10 kt
Viditelnost 10 km a více
Skoro jasno ve výšce 5000 ft
Oblačno až skoro zataženo ve výšce 6000 ft
Změna
od 19 v 17 UTC do 19 v 19 UTC
vítr z různých směrů 3 kt
Polojasno ve výšce 6000 ft

TAF: LOXZ 191415Z 1915/1924 32010KT 9999 FEW050 BKN060 BECMG 1917/1919 VRB03KT SCT060

Stav a předpovědi počasí z více než 4 000 letišť (zprávy METAR a TAF).

Červené a žluté tečky na mapě představují dostupné meteorologické stanice.

Když kurzor umístíte na tečku, zobrazí se název stanice.

Pak kliknutím zobrazíte stav a předpověď počasí.

Chcete-li změnit mapu, kliknutím na zelené tlačítko se znaménkem +mapu přiblížíte, kliknutím na zelené tlačítko se znaménkem – mapu oddálíte a kliknutím na zelené šipky přejdete na sousední mapy.


METAR-TAF: